createdAt,value
2017-09-28T00:00:51.321Z,1018.14
2017-09-28T00:01:51.321Z,1018.14
2017-09-28T00:02:51.343Z,1018.16
2017-09-28T00:03:51.319Z,1018.21
2017-09-28T00:04:51.318Z,1018.18
2017-09-28T00:05:51.320Z,1018.15
2017-09-28T00:06:51.320Z,1018.13
2017-09-28T00:07:51.319Z,1018.15
2017-09-28T00:08:51.317Z,1018.18
2017-09-28T00:09:51.315Z,1018.11
2017-09-28T00:10:51.315Z,1018.19
2017-09-28T00:11:51.316Z,1018.14
2017-09-28T00:12:51.313Z,1018.11
2017-09-28T00:13:51.308Z,1018.10
2017-09-28T00:14:51.308Z,1018.10
2017-09-28T00:15:51.307Z,1018.09
2017-09-28T00:16:51.305Z,1018.07
2017-09-28T00:17:51.304Z,1018.04
2017-09-28T00:18:51.305Z,1018.02
2017-09-28T00:19:51.304Z,1018.05
2017-09-28T00:20:51.301Z,1018.04
2017-09-28T00:21:51.304Z,1018.07
2017-09-28T00:22:51.304Z,1018.06
2017-09-28T00:23:51.304Z,1018.07
2017-09-28T00:24:51.301Z,1018.04
2017-09-28T00:25:51.301Z,1018.05
2017-09-28T00:26:51.299Z,1018.10
2017-09-28T00:27:51.299Z,1018.03
2017-09-28T00:28:51.298Z,1018.05
2017-09-28T00:29:51.292Z,1018.11
2017-09-28T00:30:51.290Z,1018.15
2017-09-28T00:31:51.290Z,1018.12
2017-09-28T00:32:51.288Z,1018.13
2017-09-28T00:33:51.287Z,1018.12
2017-09-28T00:34:51.287Z,1018.12
2017-09-28T00:35:51.290Z,1018.07
2017-09-28T00:36:51.288Z,1018.04
2017-09-28T00:37:51.287Z,1018.03
2017-09-28T00:38:51.287Z,1018.04
2017-09-28T00:39:51.286Z,1018.00
2017-09-28T00:40:51.283Z,1018.05
2017-09-28T00:41:51.279Z,1018.09
2017-09-28T00:42:51.280Z,1018.06
2017-09-28T00:43:51.276Z,1018.10
2017-09-28T00:44:51.274Z,1018.09
2017-09-28T00:45:51.277Z,1018.08
2017-09-28T00:46:51.276Z,1018.10
2017-09-28T00:47:51.276Z,1018.07
2017-09-28T00:48:51.273Z,1018.10
2017-09-28T00:49:51.275Z,1018.08
2017-09-28T00:50:51.272Z,1018.10
2017-09-28T00:51:51.269Z,1018.07
2017-09-28T00:52:51.268Z,1018.06
2017-09-28T00:53:51.264Z,1018.05
2017-09-28T00:54:51.265Z,1018.04
2017-09-28T00:55:51.262Z,1017.99
2017-09-28T00:56:51.259Z,1018.00
2017-09-28T00:57:51.259Z,1018.05
2017-09-28T00:58:51.255Z,1018.03
2017-09-28T00:59:51.256Z,1018.04
2017-09-28T01:00:51.253Z,1018.08
2017-09-28T01:01:51.256Z,1018.03
2017-09-28T01:02:51.257Z,1018.01
2017-09-28T01:03:51.255Z,1018.04
2017-09-28T01:04:51.253Z,1018.02
2017-09-28T01:05:51.251Z,1017.97
2017-09-28T01:06:51.251Z,1017.96
2017-09-28T01:07:51.249Z,1017.97
2017-09-28T01:08:51.247Z,1017.99
2017-09-28T01:09:51.242Z,1017.98
2017-09-28T01:10:51.241Z,1017.96
2017-09-28T01:11:51.239Z,1017.96
2017-09-28T01:12:51.238Z,1018.02
2017-09-28T01:13:51.236Z,1018.00
2017-09-28T01:14:51.235Z,1017.99
2017-09-28T01:15:51.234Z,1017.96
2017-09-28T01:16:51.233Z,1017.98
2017-09-28T01:17:51.234Z,1017.99
2017-09-28T01:18:51.233Z,1017.97
2017-09-28T01:19:51.233Z,1017.95
2017-09-28T01:20:51.232Z,1017.96
2017-09-28T01:21:51.230Z,1017.93
2017-09-28T01:22:51.228Z,1017.92
2017-09-28T01:23:51.229Z,1017.95
2017-09-28T01:24:51.225Z,1017.92
2017-09-28T01:25:51.219Z,1017.89
2017-09-28T01:26:51.220Z,1017.86
2017-09-28T01:27:51.217Z,1017.89
2017-09-28T01:28:51.216Z,1017.86
2017-09-28T01:29:51.215Z,1017.85
2017-09-28T01:30:51.213Z,1017.86
2017-09-28T01:31:51.213Z,1017.85
2017-09-28T01:32:51.211Z,1017.84
2017-09-28T01:33:51.214Z,1017.86
2017-09-28T01:34:51.213Z,1017.83
2017-09-28T01:35:51.212Z,1017.83
2017-09-28T01:36:51.208Z,1017.81
2017-09-28T01:37:51.207Z,1017.73
2017-09-28T01:38:51.207Z,1017.82
2017-09-28T01:39:51.207Z,1017.74
2017-09-28T01:40:51.208Z,1017.74
2017-09-28T01:41:51.199Z,1017.72
2017-09-28T01:42:51.199Z,1017.71
2017-09-28T01:43:51.197Z,1017.77
2017-09-28T01:44:51.195Z,1017.74
2017-09-28T01:45:51.202Z,1017.71
2017-09-28T01:46:51.196Z,1017.70
2017-09-28T01:47:51.194Z,1017.70
2017-09-28T01:48:51.192Z,1017.68
2017-09-28T01:49:51.188Z,1017.70
2017-09-28T01:50:51.187Z,1017.67
2017-09-28T01:51:51.186Z,1017.64
2017-09-28T01:52:51.182Z,1017.61
2017-09-28T01:53:51.183Z,1017.62
2017-09-28T01:54:51.184Z,1017.61
2017-09-28T01:55:51.184Z,1017.63
2017-09-28T01:56:51.179Z,1017.64
2017-09-28T01:57:51.182Z,1017.61
2017-09-28T01:58:51.180Z,1017.65
2017-09-28T01:59:51.179Z,1017.62
2017-09-28T02:00:51.177Z,1017.65
2017-09-28T02:01:51.178Z,1017.64
2017-09-28T02:02:51.174Z,1017.63
2017-09-28T02:03:51.174Z,1017.61
2017-09-28T02:04:51.171Z,1017.58
2017-09-28T02:05:51.167Z,1017.60
2017-09-28T02:06:51.166Z,1017.59
2017-09-28T02:07:51.167Z,1017.54
2017-09-28T02:08:51.162Z,1017.51
2017-09-28T02:09:51.161Z,1017.56
2017-09-28T02:10:51.158Z,1017.50
2017-09-28T02:11:51.160Z,1017.50
2017-09-28T02:12:51.163Z,1017.53
2017-09-28T02:13:51.159Z,1017.54
2017-09-28T02:14:51.158Z,1017.60
2017-09-28T02:15:51.156Z,1017.56
2017-09-28T02:16:51.155Z,1017.51
2017-09-28T02:17:51.153Z,1017.57
2017-09-28T02:18:51.152Z,1017.56
2017-09-28T02:19:51.152Z,1017.56
2017-09-28T02:20:51.149Z,1017.58
2017-09-28T02:21:51.147Z,1017.60
2017-09-28T02:22:51.143Z,1017.63
2017-09-28T02:23:51.143Z,1017.64
2017-09-28T02:24:51.140Z,1017.62
2017-09-28T02:25:51.140Z,1017.66
2017-09-28T02:26:51.137Z,1017.61
2017-09-28T02:27:51.137Z,1017.66
2017-09-28T02:28:51.139Z,1017.63
2017-09-28T02:29:51.137Z,1017.64
2017-09-28T02:30:51.138Z,1017.65
2017-09-28T02:31:51.136Z,1017.65
2017-09-28T02:32:51.132Z,1017.66
2017-09-28T02:33:51.131Z,1017.62
2017-09-28T02:34:51.131Z,1017.72
2017-09-28T02:35:51.130Z,1017.71
2017-09-28T02:36:51.128Z,1017.69
2017-09-28T02:37:51.124Z,1017.72
2017-09-28T02:38:51.124Z,1017.69
2017-09-28T02:39:51.121Z,1017.72
2017-09-28T02:40:51.118Z,1017.74
2017-09-28T02:41:51.118Z,1017.71
2017-09-28T02:42:51.117Z,1017.73
2017-09-28T02:43:51.115Z,1017.72
2017-09-28T02:44:51.114Z,1017.69
2017-09-28T02:45:51.117Z,1017.68
2017-09-28T02:46:51.127Z,1017.70
2017-09-28T02:47:51.123Z,1017.67
2017-09-28T02:48:51.112Z,1017.67
2017-09-28T02:49:51.108Z,1017.65
2017-09-28T02:50:51.107Z,1017.65
2017-09-28T02:51:51.106Z,1017.65
2017-09-28T02:52:51.106Z,1017.69
2017-09-28T02:53:51.108Z,1017.69
2017-09-28T02:54:51.106Z,1017.68
2017-09-28T02:55:51.105Z,1017.70
2017-09-28T02:56:51.102Z,1017.68
2017-09-28T02:57:51.102Z,1017.65
2017-09-28T02:58:51.100Z,1017.66
2017-09-28T02:59:51.099Z,1017.66
2017-09-28T03:00:51.097Z,1017.63
2017-09-28T03:01:51.091Z,1017.65
2017-09-28T03:02:51.090Z,1017.67
2017-09-28T03:03:51.090Z,1017.62
2017-09-28T03:04:51.088Z,1017.65
2017-09-28T03:05:51.091Z,1017.68
2017-09-28T03:06:51.086Z,1017.60
2017-09-28T03:07:51.084Z,1017.62
2017-09-28T03:08:51.082Z,1017.63
2017-09-28T03:09:51.085Z,1017.64
2017-09-28T03:10:51.085Z,1017.59
2017-09-28T03:11:51.083Z,1017.63
2017-09-28T03:12:51.082Z,1017.63
2017-09-28T03:13:51.084Z,1017.67
2017-09-28T03:14:51.079Z,1017.67
2017-09-28T03:15:51.078Z,1017.70
2017-09-28T03:16:51.076Z,1017.69
2017-09-28T03:17:51.072Z,1017.71
2017-09-28T03:18:51.074Z,1017.62
2017-09-28T03:19:51.068Z,1017.62
2017-09-28T03:20:51.067Z,1017.65
2017-09-28T03:21:51.066Z,1017.61
2017-09-28T03:22:51.065Z,1017.65
2017-09-28T03:23:51.063Z,1017.64
2017-09-28T03:24:51.062Z,1017.59
2017-09-28T03:25:51.065Z,1017.61
2017-09-28T03:26:51.064Z,1017.59
2017-09-28T03:27:51.063Z,1017.63
2017-09-28T03:28:51.061Z,1017.64
2017-09-28T03:29:51.060Z,1017.66
2017-09-28T03:30:51.061Z,1017.61
2017-09-28T03:31:51.057Z,1017.63
2017-09-28T03:32:51.056Z,1017.66
2017-09-28T03:33:51.050Z,1017.67
2017-09-28T03:34:51.049Z,1017.64
2017-09-28T03:35:51.047Z,1017.68
2017-09-28T03:36:51.046Z,1017.62
2017-09-28T03:37:51.045Z,1017.64
2017-09-28T03:38:51.043Z,1017.60
2017-09-28T03:39:51.041Z,1017.59
2017-09-28T03:40:51.042Z,1017.60
2017-09-28T03:41:51.044Z,1017.61
2017-09-28T03:42:51.043Z,1017.59
2017-09-28T03:43:51.041Z,1017.60
2017-09-28T03:44:51.040Z,1017.63
2017-09-28T03:45:51.039Z,1017.64
2017-09-28T03:46:51.037Z,1017.60
2017-09-28T03:47:51.035Z,1017.56
2017-09-28T03:48:51.034Z,1017.61
2017-09-28T03:49:51.029Z,1017.61
2017-09-28T03:50:51.028Z,1017.62
2017-09-28T03:51:51.033Z,1017.59
2017-09-28T03:52:51.024Z,1017.64
2017-09-28T03:53:51.028Z,1017.70
2017-09-28T03:54:51.027Z,1017.67
2017-09-28T03:55:51.026Z,1017.70
2017-09-28T03:56:51.024Z,1017.73
2017-09-28T03:57:51.018Z,1017.67
2017-09-28T03:58:51.018Z,1017.74
2017-09-28T03:59:51.017Z,1017.71
2017-09-28T04:00:51.015Z,1017.67
2017-09-28T04:01:51.018Z,1017.69
2017-09-28T04:02:51.013Z,1017.67
2017-09-28T04:03:51.013Z,1017.66
2017-09-28T04:04:51.010Z,1017.67
2017-09-28T04:05:51.013Z,1017.66
2017-09-28T04:06:51.012Z,1017.72
2017-09-28T04:07:51.010Z,1017.71
2017-09-28T04:08:51.010Z,1017.72
2017-09-28T04:09:51.007Z,1017.74
2017-09-28T04:10:51.007Z,1017.76
2017-09-28T04:11:51.005Z,1017.71
2017-09-28T04:12:51.003Z,1017.64
2017-09-28T04:13:51.000Z,1017.63
2017-09-28T04:14:50.998Z,1017.60
2017-09-28T04:15:50.997Z,1017.57
2017-09-28T04:16:50.994Z,1017.56
2017-09-28T04:17:50.994Z,1017.55
2017-09-28T04:18:50.994Z,1017.53
2017-09-28T04:19:51.010Z,1017.52
2017-09-28T04:20:51.006Z,1017.59
2017-09-28T04:21:50.993Z,1017.49
2017-09-28T04:22:50.992Z,1017.59
2017-09-28T04:23:50.991Z,1017.56
2017-09-28T04:24:50.989Z,1017.57
2017-09-28T04:25:50.990Z,1017.60
2017-09-28T04:26:50.986Z,1017.60
2017-09-28T04:27:50.986Z,1017.57
2017-09-28T04:28:50.986Z,1017.59
2017-09-28T04:29:50.986Z,1017.56
2017-09-28T04:30:50.978Z,1017.59
2017-09-28T04:31:50.979Z,1017.58
2017-09-28T04:32:50.974Z,1017.59
2017-09-28T04:33:50.975Z,1017.62
2017-09-28T04:34:50.974Z,1017.61
2017-09-28T04:35:50.972Z,1017.58
2017-09-28T04:36:50.970Z,1017.57
2017-09-28T04:37:50.977Z,1017.61
2017-09-28T04:38:50.972Z,1017.60
2017-09-28T04:39:50.971Z,1017.64
2017-09-28T04:40:50.970Z,1017.59
2017-09-28T04:41:50.969Z,1017.56
2017-09-28T04:42:50.968Z,1017.52
2017-09-28T04:43:50.968Z,1017.55
2017-09-28T04:44:50.966Z,1017.55
2017-09-28T04:45:50.960Z,1017.47
2017-09-28T04:46:50.959Z,1017.50
2017-09-28T04:47:50.959Z,1017.48
2017-09-28T04:48:50.956Z,1017.49
2017-09-28T04:49:50.955Z,1017.49
2017-09-28T04:50:50.956Z,1017.48
2017-09-28T04:51:50.954Z,1017.48
2017-09-28T04:52:50.952Z,1017.46
2017-09-28T04:53:50.955Z,1017.48
2017-09-28T04:54:50.954Z,1017.45
2017-09-28T04:55:50.954Z,1017.40
2017-09-28T04:56:50.951Z,1017.41
2017-09-28T04:57:50.947Z,1017.40
2017-09-28T04:58:50.945Z,1017.39
2017-09-28T04:59:50.944Z,1017.36
2017-09-28T05:00:50.942Z,1017.41
2017-09-28T05:01:50.946Z,1017.44
2017-09-28T05:02:50.944Z,1017.43
2017-09-28T05:03:50.943Z,1017.45
2017-09-28T05:04:50.942Z,1017.45
2017-09-28T05:05:50.941Z,1017.45
2017-09-28T05:06:50.944Z,1017.48
2017-09-28T05:07:50.939Z,1017.44
2017-09-28T05:08:50.935Z,1017.46
2017-09-28T05:09:50.932Z,1017.42
2017-09-28T05:10:50.931Z,1017.44
2017-09-28T05:11:50.928Z,1017.48
2017-09-28T05:12:50.925Z,1017.47
2017-09-28T05:13:50.928Z,1017.47
2017-09-28T05:14:50.928Z,1017.54
2017-09-28T05:15:50.931Z,1017.53
2017-09-28T05:16:50.923Z,1017.52
2017-09-28T05:17:50.927Z,1017.53
2017-09-28T05:18:50.927Z,1017.52
2017-09-28T05:19:50.925Z,1017.51
2017-09-28T05:20:50.923Z,1017.43
2017-09-28T05:21:50.921Z,1017.45
2017-09-28T05:22:50.919Z,1017.47
2017-09-28T05:23:50.919Z,1017.46
2017-09-28T05:24:50.917Z,1017.47
2017-09-28T05:25:50.912Z,1017.53
2017-09-28T05:26:50.911Z,1017.51
2017-09-28T05:27:50.910Z,1017.54
2017-09-28T05:28:50.907Z,1017.56
2017-09-28T05:29:50.906Z,1017.52
2017-09-28T05:30:50.906Z,1017.53
2017-09-28T05:31:50.905Z,1017.46
2017-09-28T05:32:50.907Z,1017.47
2017-09-28T05:33:50.906Z,1017.51
2017-09-28T05:34:50.905Z,1017.43
2017-09-28T05:35:50.904Z,1017.47
2017-09-28T05:36:50.902Z,1017.45
2017-09-28T05:37:50.901Z,1017.50
2017-09-28T05:38:50.902Z,1017.50
2017-09-28T05:39:50.899Z,1017.50
2017-09-28T05:40:50.896Z,1017.53
2017-09-28T05:41:50.892Z,1017.53
2017-09-28T05:42:50.890Z,1017.51
2017-09-28T05:43:50.890Z,1017.49
2017-09-28T05:44:50.888Z,1017.50
2017-09-28T05:45:50.887Z,1017.48
2017-09-28T05:46:50.886Z,1017.53
2017-09-28T05:47:50.885Z,1017.58
2017-09-28T05:48:50.883Z,1017.62
2017-09-28T05:49:50.887Z,1017.59
2017-09-28T05:50:50.885Z,1017.65
2017-09-28T05:51:50.883Z,1017.66
2017-09-28T05:52:50.881Z,1017.63
2017-09-28T05:53:50.882Z,1017.64
2017-09-28T05:54:50.881Z,1017.65
2017-09-28T05:55:50.878Z,1017.74
2017-09-28T05:56:50.878Z,1017.70
2017-09-28T05:57:50.873Z,1017.75
2017-09-28T05:58:50.873Z,1017.70
2017-09-28T05:59:50.870Z,1017.76
2017-09-28T06:00:50.868Z,1017.79
2017-09-28T06:01:50.869Z,1017.80
2017-09-28T06:02:50.866Z,1017.79
2017-09-28T06:03:50.866Z,1017.82
2017-09-28T06:04:50.863Z,1017.82
2017-09-28T06:05:50.866Z,1017.86
2017-09-28T06:06:50.867Z,1017.90
2017-09-28T06:07:50.866Z,1017.91
2017-09-28T06:08:50.862Z,1017.94
2017-09-28T06:09:50.862Z,1017.94
2017-09-28T06:10:50.861Z,1017.94
2017-09-28T06:11:50.861Z,1017.96
2017-09-28T06:12:50.859Z,1017.98
2017-09-28T06:13:50.854Z,1017.99
2017-09-28T06:14:50.853Z,1017.98
2017-09-28T06:15:50.853Z,1017.97
2017-09-28T06:16:50.852Z,1017.96
2017-09-28T06:17:50.852Z,1017.95
2017-09-28T06:18:50.849Z,1018.00
2017-09-28T06:19:50.848Z,1017.99
2017-09-28T06:20:50.846Z,1017.97
2017-09-28T06:21:50.848Z,1017.99
2017-09-28T06:22:50.849Z,1017.97
2017-09-28T06:23:50.848Z,1018.03
2017-09-28T06:24:50.846Z,1018.01
2017-09-28T06:25:50.845Z,1018.03
2017-09-28T06:26:50.845Z,1017.99
2017-09-28T06:27:50.843Z,1018.04
2017-09-28T06:28:50.842Z,1017.96
2017-09-28T06:29:50.837Z,1017.99
2017-09-28T06:30:50.836Z,1017.98
2017-09-28T06:31:50.838Z,1018.02
2017-09-28T06:32:50.834Z,1018.01
2017-09-28T06:33:50.832Z,1018.02
2017-09-28T06:34:50.838Z,1018.00
2017-09-28T06:35:50.833Z,1018.02
2017-09-28T06:36:50.831Z,1018.00
2017-09-28T06:37:50.837Z,1018.03
2017-09-28T06:38:50.840Z,1018.00
2017-09-28T06:39:50.834Z,1018.04
2017-09-28T06:40:50.831Z,1018.04
2017-09-28T06:41:50.832Z,1018.04
2017-09-28T06:42:50.831Z,1018.04
2017-09-28T06:43:50.831Z,1018.01
2017-09-28T06:44:50.828Z,1018.02
2017-09-28T06:45:50.828Z,1017.99
2017-09-28T06:46:50.827Z,1018.03
2017-09-28T06:47:50.825Z,1018.00
2017-09-28T06:48:50.823Z,1018.05
2017-09-28T06:49:50.823Z,1018.03
2017-09-28T06:50:50.823Z,1018.03
2017-09-28T06:51:50.824Z,1018.00
2017-09-28T06:52:50.821Z,1018.01
2017-09-28T06:53:50.824Z,1018.04
2017-09-28T06:54:50.826Z,1018.05
2017-09-28T06:55:50.825Z,1018.03
2017-09-28T06:56:50.824Z,1018.06
2017-09-28T06:57:50.824Z,1018.06
2017-09-28T06:58:50.823Z,1018.03
2017-09-28T06:59:50.827Z,1018.03
2017-09-28T07:00:50.821Z,1018.07
2017-09-28T07:01:50.819Z,1018.02
2017-09-28T07:02:50.817Z,1018.00
2017-09-28T07:03:50.817Z,1018.03
2017-09-28T07:04:50.816Z,1018.04
2017-09-28T07:05:50.822Z,1018.04
2017-09-28T07:06:50.820Z,1018.05
2017-09-28T07:07:50.821Z,1018.06
2017-09-28T07:08:50.819Z,1018.19
2017-09-28T07:09:50.813Z,1018.10
2017-09-28T07:10:50.814Z,1018.13
2017-09-28T07:11:50.814Z,1018.04
2017-09-28T07:12:50.812Z,1018.15
2017-09-28T07:13:50.816Z,1018.10
2017-09-28T07:14:50.811Z,1018.12
2017-09-28T07:15:50.811Z,1018.12
2017-09-28T07:16:50.808Z,1018.13
2017-09-28T07:17:50.812Z,1018.16
2017-09-28T07:18:50.815Z,1018.17
2017-09-28T07:19:50.812Z,1018.26
2017-09-28T07:20:50.812Z,1018.24
2017-09-28T07:21:50.810Z,1018.27
2017-09-28T07:22:50.811Z,1018.32
2017-09-28T07:23:50.811Z,1018.35
2017-09-28T07:24:50.809Z,1018.31
2017-09-28T07:25:50.805Z,1018.32
2017-09-28T07:26:50.804Z,1018.30
2017-09-28T07:27:50.804Z,1018.25
2017-09-28T07:28:50.802Z,1018.28
2017-09-28T07:29:50.803Z,1018.28
2017-09-28T07:30:50.805Z,1018.29
2017-09-28T07:31:50.802Z,1018.37
2017-09-28T07:32:50.801Z,1018.45
2017-09-28T07:33:50.804Z,1018.42
2017-09-28T07:34:50.806Z,1018.50
2017-09-28T07:35:50.806Z,1018.49
2017-09-28T07:36:50.805Z,1018.46
2017-09-28T07:37:50.805Z,1018.47
2017-09-28T07:38:50.805Z,1018.44
2017-09-28T07:39:50.805Z,1018.42
2017-09-28T07:40:50.805Z,1018.45
2017-09-28T07:41:50.800Z,1018.47
2017-09-28T07:42:50.800Z,1018.52
2017-09-28T07:43:50.802Z,1018.51
2017-09-28T07:44:50.801Z,1018.46
2017-09-28T07:45:50.802Z,1018.44
2017-09-28T07:46:50.802Z,1018.44
2017-09-28T07:47:50.802Z,1018.42
2017-09-28T07:48:50.803Z,1018.40
2017-09-28T07:49:50.810Z,1018.46
2017-09-28T07:50:50.807Z,1018.43
2017-09-28T07:51:50.832Z,1018.46
2017-09-28T07:52:50.809Z,1018.45
2017-09-28T07:53:50.808Z,1018.47
2017-09-28T07:54:50.810Z,1018.48
2017-09-28T07:55:50.811Z,1018.49
2017-09-28T07:56:50.811Z,1018.51
2017-09-28T07:57:50.807Z,1018.53
2017-09-28T07:58:50.810Z,1018.51
2017-09-28T07:59:50.817Z,1018.51
2017-09-28T08:00:50.810Z,1018.52
2017-09-28T08:01:50.813Z,1018.51
2017-09-28T08:02:50.813Z,1018.53
2017-09-28T08:03:50.816Z,1018.58
2017-09-28T08:04:50.815Z,1018.62
2017-09-28T08:05:50.821Z,1018.63
2017-09-28T08:06:50.825Z,1018.70
2017-09-28T08:07:50.824Z,1018.70
2017-09-28T08:08:50.824Z,1018.70
2017-09-28T08:09:50.823Z,1018.62
2017-09-28T08:10:50.824Z,1018.62
2017-09-28T08:11:50.826Z,1018.62
2017-09-28T08:12:50.825Z,1018.61
2017-09-28T08:13:50.832Z,1018.52
2017-09-28T08:14:50.832Z,1018.57
2017-09-28T08:15:50.836Z,1018.55
2017-09-28T08:16:50.836Z,1018.50
2017-09-28T08:17:50.837Z,1018.47
2017-09-28T08:18:50.845Z,1018.50
2017-09-28T08:19:50.842Z,1018.60
2017-09-28T08:20:50.860Z,1018.57
2017-09-28T08:21:50.841Z,1018.57
2017-09-28T08:22:50.841Z,1018.60
2017-09-28T08:23:50.843Z,1018.57
2017-09-28T08:24:50.845Z,1018.56
2017-09-28T08:25:50.849Z,1018.54
2017-09-28T08:26:50.848Z,1018.53
2017-09-28T08:27:50.849Z,1018.46
2017-09-28T08:28:50.850Z,1018.53
2017-09-28T08:29:50.856Z,1018.49
2017-09-28T08:30:50.858Z,1018.51
2017-09-28T08:31:50.857Z,1018.52
2017-09-28T08:32:50.859Z,1018.46
2017-09-28T08:33:50.860Z,1018.46
2017-09-28T08:34:50.862Z,1018.46
2017-09-28T08:35:50.863Z,1018.46
2017-09-28T08:36:50.863Z,1018.44
2017-09-28T08:37:50.861Z,1018.43
2017-09-28T08:38:50.862Z,1018.45
2017-09-28T08:39:50.867Z,1018.47
2017-09-28T08:40:50.863Z,1018.50
2017-09-28T08:41:50.864Z,1018.51
2017-09-28T08:42:50.866Z,1018.51
2017-09-28T08:43:50.868Z,1018.56
2017-09-28T08:44:50.868Z,1018.51
2017-09-28T08:45:50.875Z,1018.57
2017-09-28T08:46:50.873Z,1018.63
2017-09-28T08:47:50.874Z,1018.61
2017-09-28T08:48:50.875Z,1018.66
2017-09-28T08:49:50.876Z,1018.63
2017-09-28T08:50:50.877Z,1018.61
2017-09-28T08:51:50.878Z,1018.66
2017-09-28T08:52:50.878Z,1018.65
2017-09-28T08:53:50.874Z,1018.68
2017-09-28T08:54:50.877Z,1018.72
2017-09-28T08:55:50.877Z,1018.62
2017-09-28T08:56:50.877Z,1018.72
2017-09-28T08:57:50.880Z,1018.71
2017-09-28T08:58:50.882Z,1018.69
2017-09-28T08:59:50.882Z,1018.65
2017-09-28T09:00:50.893Z,1018.62
2017-09-28T09:01:50.888Z,1018.64
2017-09-28T09:02:50.889Z,1018.60
2017-09-28T09:03:50.893Z,1018.63
2017-09-28T09:04:50.892Z,1018.64
2017-09-28T09:05:50.895Z,1018.63
2017-09-28T09:06:50.925Z,1018.64
2017-09-28T09:07:50.902Z,1018.60
2017-09-28T09:08:50.899Z,1018.63
2017-09-28T09:09:50.904Z,1018.62
2017-09-28T09:10:50.902Z,1018.64
2017-09-28T09:11:50.902Z,1018.65
2017-09-28T09:12:50.902Z,1018.69
2017-09-28T09:13:50.908Z,1018.78
2017-09-28T09:14:50.913Z,1018.78
2017-09-28T09:15:50.914Z,1018.77
2017-09-28T09:16:50.915Z,1018.75
2017-09-28T09:17:50.913Z,1018.80
2017-09-28T09:18:50.916Z,1019.01
2017-09-28T09:19:50.917Z,1019.18
2017-09-28T09:20:50.920Z,1019.24
2017-09-28T09:21:50.922Z,1019.07
2017-09-28T09:22:50.926Z,1018.95
2017-09-28T09:23:50.928Z,1019.07
2017-09-28T09:24:50.936Z,1018.95
2017-09-28T09:25:50.941Z,1019.21
2017-09-28T09:26:50.945Z,1019.03
2017-09-28T09:27:50.951Z,1019.27
2017-09-28T09:28:50.955Z,1019.38
2017-09-28T09:29:50.962Z,1019.44
2017-09-28T09:30:50.966Z,1019.13
2017-09-28T09:31:50.973Z,1019.12
2017-09-28T09:32:50.984Z,1019.43
2017-09-28T09:33:50.984Z,1018.94
2017-09-28T09:34:50.991Z,1019.46
2017-09-28T09:35:50.997Z,1018.96
2017-09-28T09:36:51.004Z,1018.84
2017-09-28T09:37:51.013Z,1018.82
2017-09-28T09:38:51.021Z,1018.79
2017-09-28T09:39:51.032Z,1018.77
2017-09-28T09:40:51.038Z,1018.74
2017-09-28T09:41:51.050Z,1018.75
2017-09-28T09:42:51.060Z,1018.78
2017-09-28T09:43:51.069Z,1018.78
2017-09-28T09:44:51.076Z,1018.75
2017-09-28T09:45:51.085Z,1018.71
2017-09-28T09:46:51.093Z,1018.70
2017-09-28T09:47:51.100Z,1018.71
2017-09-28T09:48:51.108Z,1018.59
2017-09-28T09:49:51.109Z,1018.59
2017-09-28T09:50:51.118Z,1018.60
2017-09-28T09:51:51.124Z,1018.54
2017-09-28T09:52:51.130Z,1018.51
2017-09-28T09:53:51.138Z,1018.58
2017-09-28T09:54:51.143Z,1018.60
2017-09-28T09:55:51.151Z,1018.56
2017-09-28T09:56:51.154Z,1018.58
2017-09-28T09:57:51.166Z,1018.64
2017-09-28T09:58:51.171Z,1018.66
2017-09-28T09:59:51.181Z,1018.63
2017-09-28T10:00:51.182Z,1018.72
2017-09-28T10:01:51.186Z,1018.73
2017-09-28T10:02:51.195Z,1018.71
2017-09-28T10:03:51.198Z,1018.70
2017-09-28T10:04:51.203Z,1018.70
2017-09-28T10:05:51.203Z,1018.65
2017-09-28T10:06:51.207Z,1018.67
2017-09-28T10:07:51.214Z,1018.62
2017-09-28T10:08:51.218Z,1018.62
2017-09-28T10:09:51.223Z,1018.57
2017-09-28T10:10:51.228Z,1018.51
2017-09-28T10:11:51.233Z,1018.58
2017-09-28T10:12:51.238Z,1018.62
2017-09-28T10:13:51.248Z,1018.58
2017-09-28T10:14:51.251Z,1018.59
2017-09-28T10:15:51.257Z,1018.64
2017-09-28T10:16:51.260Z,1018.70
2017-09-28T10:17:51.260Z,1018.69
2017-09-28T10:18:51.266Z,1018.66
2017-09-28T10:19:51.270Z,1018.70
2017-09-28T10:20:51.273Z,1018.69
2017-09-28T10:21:51.283Z,1018.67
2017-09-28T10:22:51.292Z,1018.65
2017-09-28T10:23:51.291Z,1018.67
2017-09-28T10:24:51.295Z,1018.62
2017-09-28T10:25:51.298Z,1018.61
2017-09-28T10:26:51.304Z,1018.59
2017-09-28T10:27:51.312Z,1018.60
2017-09-28T10:28:51.312Z,1018.62
2017-09-28T10:29:51.312Z,1018.61
2017-09-28T10:30:51.314Z,1018.62
2017-09-28T10:31:51.330Z,1018.58
2017-09-28T10:32:51.321Z,1018.57
2017-09-28T10:33:51.326Z,1018.62
2017-09-28T10:34:51.330Z,1018.62
2017-09-28T10:35:51.332Z,1018.63
2017-09-28T10:36:51.337Z,1018.59
2017-09-28T10:37:51.342Z,1018.60
2017-09-28T10:38:51.348Z,1018.63
2017-09-28T10:39:51.352Z,1018.55
2017-09-28T10:40:51.358Z,1018.56
2017-09-28T10:41:51.358Z,1018.62
2017-09-28T10:42:51.360Z,1018.64
2017-09-28T10:43:51.365Z,1018.64
2017-09-28T10:44:51.367Z,1018.64
2017-09-28T10:45:51.366Z,1018.66
2017-09-28T10:46:51.369Z,1018.66
2017-09-28T10:47:51.372Z,1018.63
2017-09-28T10:48:51.374Z,1018.64
2017-09-28T10:49:51.375Z,1018.63
2017-09-28T10:50:51.379Z,1018.70
2017-09-28T10:51:51.383Z,1018.72
2017-09-28T10:52:51.387Z,1018.65
2017-09-28T10:53:51.392Z,1018.67
2017-09-28T10:54:51.395Z,1018.68
2017-09-28T10:55:51.398Z,1018.68
2017-09-28T10:56:51.400Z,1018.70
2017-09-28T10:57:51.403Z,1018.70
2017-09-28T10:58:51.410Z,1018.72
2017-09-28T10:59:51.412Z,1018.74
2017-09-28T11:00:51.411Z,1018.75
2017-09-28T11:01:51.410Z,1018.77
2017-09-28T11:02:51.411Z,1018.81
2017-09-28T11:03:51.413Z,1018.78
2017-09-28T11:04:51.415Z,1018.80
2017-09-28T11:05:51.419Z,1018.80
2017-09-28T11:06:51.422Z,1018.85
2017-09-28T11:07:51.423Z,1018.79
2017-09-28T11:08:51.426Z,1018.82
2017-09-28T11:09:51.431Z,1018.83
2017-09-28T11:10:51.436Z,1018.86
2017-09-28T11:11:51.465Z,1018.81
2017-09-28T11:12:51.450Z,1018.82
2017-09-28T11:13:51.462Z,1018.74
2017-09-28T11:14:51.448Z,1018.76
2017-09-28T11:15:51.446Z,1018.80
2017-09-28T11:16:51.450Z,1018.79
2017-09-28T11:17:51.447Z,1018.79
2017-09-28T11:18:51.448Z,1018.78
2017-09-28T11:19:51.451Z,1018.77
2017-09-28T11:20:51.469Z,1018.85
2017-09-28T11:21:51.460Z,1018.88
2017-09-28T11:22:51.463Z,1018.84
2017-09-28T11:23:51.466Z,1018.86
2017-09-28T11:24:51.468Z,1018.88
2017-09-28T11:25:51.467Z,1018.81
2017-09-28T11:26:51.474Z,1018.80
2017-09-28T11:27:51.472Z,1018.83
2017-09-28T11:28:51.473Z,1018.86
2017-09-28T11:29:51.476Z,1018.81
2017-09-28T11:30:51.477Z,1018.85
2017-09-28T11:31:51.481Z,1018.81
2017-09-28T11:32:51.483Z,1018.72
2017-09-28T11:33:51.490Z,1018.73
2017-09-28T11:34:51.493Z,1018.69
2017-09-28T11:35:51.495Z,1018.68
2017-09-28T11:36:51.497Z,1018.68
2017-09-28T11:37:51.500Z,1018.65
2017-09-28T11:38:51.503Z,1018.64
2017-09-28T11:39:51.503Z,1018.60
2017-09-28T11:40:51.508Z,1018.60
2017-09-28T11:41:51.504Z,1018.58
2017-09-28T11:42:51.507Z,1018.54
2017-09-28T11:43:51.508Z,1018.50
2017-09-28T11:44:51.511Z,1018.54
2017-09-28T11:45:51.512Z,1018.53
2017-09-28T11:46:51.515Z,1018.55
2017-09-28T11:47:51.517Z,1018.56
2017-09-28T11:48:51.519Z,1018.61
2017-09-28T11:49:51.526Z,1018.59
2017-09-28T11:50:51.528Z,1018.63
2017-09-28T11:51:51.532Z,1018.59
2017-09-28T11:52:51.533Z,1018.59
2017-09-28T11:53:51.535Z,1018.56
2017-09-28T11:54:51.537Z,1018.48
2017-09-28T11:55:51.540Z,1018.48
2017-09-28T11:56:51.542Z,1018.49
2017-09-28T11:57:51.540Z,1018.46
2017-09-28T11:58:51.542Z,1018.39
2017-09-28T11:59:51.548Z,1018.38
2017-09-28T12:00:51.547Z,1018.33
2017-09-28T12:01:51.548Z,1018.33
2017-09-28T12:02:51.552Z,1018.34
2017-09-28T12:03:51.553Z,1018.34
2017-09-28T12:04:51.557Z,1018.40
2017-09-28T12:05:51.564Z,1018.32